sensor_id;sensor_type;location;lat;lon;timestamp;pressure;altitude;pressure_sealevel;temperature;humidity
21960;BME280;11144;43.030;25.108;2023-04-06T00:00:04;98962.75;;;5.89;100.00
21960;BME280;11144;43.030;25.108;2023-04-06T00:01:53;98959.28;;;5.87;100.00
21960;BME280;11144;43.030;25.108;2023-04-06T00:03:53;98945.25;;;5.88;100.00
21960;BME280;11144;43.030;25.108;2023-04-06T00:05:35;98954.09;;;5.84;100.00
21960;BME280;11144;43.030;25.108;2023-04-06T00:07:34;98956.00;;;5.76;100.00
21960;BME280;11144;43.030;25.108;2023-04-06T00:09:34;98949.06;;;5.75;100.00
21960;BME280;11144;43.030;25.108;2023-04-06T00:11:22;98945.53;;;5.76;100.00
21960;BME280;11144;43.030;25.108;2023-04-06T00:13:15;98941.16;;;5.77;100.00
21960;BME280;11144;43.030;25.108;2023-04-06T00:15:02;98941.91;;;5.83;100.00
21960;BME280;11144;43.030;25.108;2023-04-06T00:16:55;98934.88;;;5.85;100.00
21960;BME280;11144;43.030;25.108;2023-04-06T00:18:36;98951.59;;;5.80;100.00
21960;BME280;11144;43.030;25.108;2023-04-06T00:20:37;98932.31;;;5.82;100.00
21960;BME280;11144;43.030;25.108;2023-04-06T00:22:17;98923.53;;;5.83;100.00
21960;BME280;11144;43.030;25.108;2023-04-06T00:24:09;98918.28;;;5.83;100.00
21960;BME280;11144;43.030;25.108;2023-04-06T00:25:49;98915.81;;;5.77;100.00
21960;BME280;11144;43.030;25.108;2023-04-06T00:27:30;98911.38;;;5.81;100.00
21960;BME280;11144;43.030;25.108;2023-04-06T00:29:23;98922.63;;;5.84;100.00
21960;BME280;11144;43.030;25.108;2023-04-06T00:31:04;98908.75;;;5.79;100.00
21960;BME280;11144;43.030;25.108;2023-04-06T00:32:50;98912.28;;;5.78;100.00
21960;BME280;11144;43.030;25.108;2023-04-06T00:34:43;98910.56;;;5.77;100.00
21960;BME280;11144;43.030;25.108;2023-04-06T00:36:32;98910.56;;;5.77;100.00
21960;BME280;11144;43.030;25.108;2023-04-06T00:38:25;98907.03;;;5.78;100.00
21960;BME280;11144;43.030;25.108;2023-04-06T00:40:06;98898.22;;;5.82;100.00
21960;BME280;11144;43.030;25.108;2023-04-06T00:42:11;98891.25;;;5.81;100.00
21960;BME280;11144;43.030;25.108;2023-04-06T00:43:53;98894.63;;;5.86;100.00
21960;BME280;11144;43.030;25.108;2023-04-06T00:45:46;98892.88;;;5.87;100.00
21960;BME280;11144;43.030;25.108;2023-04-06T00:47:32;98884.03;;;5.91;100.00
21960;BME280;11144;43.030;25.108;2023-04-06T00:49:33;98897.09;;;5.92;100.00
21960;BME280;11144;43.030;25.108;2023-04-06T00:51:19;98901.44;;;5.93;100.00
21960;BME280;11144;43.030;25.108;2023-04-06T00:53:08;98892.66;;;5.94;100.00
21960;BME280;11144;43.030;25.108;2023-04-06T00:54:48;98885.91;;;5.84;100.00
21960;BME280;11144;43.030;25.108;2023-04-06T00:56:35;98896.59;;;5.75;100.00
21960;BME280;11144;43.030;25.108;2023-04-06T00:58:28;98899.13;;;5.80;100.00
21960;BME280;11144;43.030;25.108;2023-04-06T01:00:12;98903.47;;;5.82;100.00
21960;BME280;11144;43.030;25.108;2023-04-06T01:02:13;98894.69;;;5.83;100.00
21960;BME280;11144;43.030;25.108;2023-04-06T01:04:00;98892.97;;;5.82;100.00
21960;BME280;11144;43.030;25.108;2023-04-06T01:05:53;98893.88;;;5.81;100.00
21960;BME280;11144;43.030;25.108;2023-04-06T01:07:45;98884.19;;;5.83;100.00
21960;BME280;11144;43.030;25.108;2023-04-06T01:09:47;98890.31;;;5.84;100.00
21960;BME280;11144;43.030;25.108;2023-04-06T01:11:47;98886.81;;;5.83;100.00
21960;BME280;11144;43.030;25.108;2023-04-06T01:13:37;98883.28;;;5.84;100.00
21960;BME280;11144;43.030;25.108;2023-04-06T01:15:36;98878.88;;;5.86;100.00
21960;BME280;11144;43.030;25.108;2023-04-06T01:17:36;98882.41;;;5.85;100.00
21960;BME280;11144;43.030;25.108;2023-04-06T01:19:27;98876.28;;;5.85;100.00
21960;BME280;11144;43.030;25.108;2023-04-06T01:21:08;98876.25;;;5.86;100.00
21960;BME280;11144;43.030;25.108;2023-04-06T01:23:24;98864.16;;;5.81;100.00
21960;BME280;11144;43.030;25.108;2023-04-06T01:25:10;98861.66;;;5.73;100.00
21960;BME280;11144;43.030;25.108;2023-04-06T01:26:59;98858.16;;;5.74;100.00
21960;BME280;11144;43.030;25.108;2023-04-06T01:29:08;98858.16;;;5.74;100.00
21960;BME280;11144;43.030;25.108;2023-04-06T03:02:08;98853.25;;;5.23;100.00
21960;BME280;11144;43.030;25.108;2023-04-06T03:03:56;98848.84;;;5.26;100.00
21960;BME280;11144;43.030;25.108;2023-04-06T03:05:50;98853.84;;;5.35;100.00
21960;BME280;11144;43.030;25.108;2023-04-06T03:07:39;98853.78;;;5.38;100.00
21960;BME280;11144;43.030;25.108;2023-04-06T03:09:46;98851.13;;;5.40;100.00
21960;BME280;11144;43.030;25.108;2023-04-06T03:11:27;98855.56;;;5.36;100.00
21960;BME280;11144;43.030;25.108;2023-04-06T03:13:12;98855.50;;;5.39;100.00
21960;BME280;11144;43.030;25.108;2023-04-06T03:15:03;98851.06;;;5.43;100.00
21960;BME280;11144;43.030;25.108;2023-04-06T03:16:48;98843.97;;;5.46;100.00
21960;BME280;11144;43.030;25.108;2023-04-06T03:18:37;98850.97;;;5.46;100.00
21960;BME280;11144;43.030;25.108;2023-04-06T03:20:23;98853.56;;;5.47;100.00
21960;BME280;11144;43.030;25.108;2023-04-06T03:22:03;98849.25;;;5.45;100.00
21960;BME280;11144;43.030;25.108;2023-04-06T03:23:51;98856.19;;;5.47;100.00
21960;BME280;11144;43.030;25.108;2023-04-06T03:25:44;98850.94;;;5.47;100.00
21960;BME280;11144;43.030;25.108;2023-04-06T03:27:25;98851.78;;;5.49;100.00
21960;BME280;11144;43.030;25.108;2023-04-06T03:29:28;98851.75;;;5.51;100.00
21960;BME280;11144;43.030;25.108;2023-04-06T03:31:10;98848.31;;;5.47;100.00
21960;BME280;11144;43.030;25.108;2023-04-06T03:33:08;98853.78;;;5.38;100.00
21960;BME280;11144;43.030;25.108;2023-04-06T03:35:00;98847.09;;;5.25;100.00
21960;BME280;11144;43.030;25.108;2023-04-06T03:36:46;98844.59;;;5.21;100.00
21960;BME280;11144;43.030;25.108;2023-04-06T03:38:50;98859.50;;;5.17;100.00
21960;BME280;11144;43.030;25.108;2023-04-06T03:40:43;98851.63;;;5.17;100.00
21960;BME280;11144;43.030;25.108;2023-04-06T03:42:33;98849.91;;;5.16;100.00
21960;BME280;11144;43.030;25.108;2023-04-06T03:44:17;98847.38;;;5.13;100.00
21960;BME280;11144;43.030;25.108;2023-04-06T03:46:05;98850.78;;;5.17;100.00
21960;BME280;11144;43.030;25.108;2023-04-06T03:48:02;98851.56;;;5.20;100.00
21960;BME280;11144;43.030;25.108;2023-04-06T03:49:42;98853.25;;;5.23;100.00
21960;BME280;11144;43.030;25.108;2023-04-06T03:51:47;98852.41;;;5.22;100.00
21960;BME280;11144;43.030;25.108;2023-04-06T03:53:27;98858.53;;;5.21;100.00
21960;BME280;11144;43.030;25.108;2023-04-06T03:55:21;98853.41;;;5.17;100.00
21960;BME280;11144;43.030;25.108;2023-04-06T03:57:08;98860.34;;;5.19;100.00
21960;BME280;11144;43.030;25.108;2023-04-06T03:59:00;98855.97;;;5.18;100.00
21960;BME280;11144;43.030;25.108;2023-04-06T04:00:48;98859.44;;;5.20;100.00
21960;BME280;11144;43.030;25.108;2023-04-06T04:02:48;98851.53;;;5.22;100.00
21960;BME280;11144;43.030;25.108;2023-04-06T04:04:29;98854.13;;;5.23;100.00
21960;BME280;11144;43.030;25.108;2023-04-06T04:06:28;98842.84;;;5.20;100.00
21960;BME280;11144;43.030;25.108;2023-04-06T04:08:30;98855.78;;;5.27;100.00
21960;BME280;11144;43.030;25.108;2023-04-06T04:10:23;98857.44;;;5.31;100.00
21960;BME280;11144;43.030;25.108;2023-04-06T04:12:16;98864.34;;;5.35;100.00
21960;BME280;11144;43.030;25.108;2023-04-06T04:13:57;98858.06;;;5.42;100.00
21960;BME280;11144;43.030;25.108;2023-04-06T04:15:56;98864.13;;;5.44;100.00
21960;BME280;11144;43.030;25.108;2023-04-06T04:17:56;98864.03;;;5.47;100.00
21960;BME280;11144;43.030;25.108;2023-04-06T04:19:37;98862.25;;;5.49;100.00
21960;BME280;11144;43.030;25.108;2023-04-06T04:21:42;98864.13;;;5.44;100.00
21960;BME280;11144;43.030;25.108;2023-04-06T04:23:46;98863.22;;;5.45;100.00
21960;BME280;11144;43.030;25.108;2023-04-06T04:25:48;98858.81;;;5.47;100.00
21960;BME280;11144;43.030;25.108;2023-04-06T04:27:36;98848.41;;;5.44;100.00
21960;BME280;11144;43.030;25.108;2023-04-06T04:29:31;98849.97;;;5.51;100.00
21960;BME280;11144;43.030;25.108;2023-04-06T04:31:15;98850.91;;;5.49;100.00
21960;BME280;11144;43.030;25.108;2023-04-06T04:33:11;98862.25;;;5.49;100.00
21960;BME280;11144;43.030;25.108;2023-04-06T04:34:53;98857.09;;;5.46;100.00
21960;BME280;11144;43.030;25.108;2023-04-06T04:36:43;98857.16;;;5.43;100.00
21960;BME280;11144;43.030;25.108;2023-04-06T04:38:55;98860.44;;;5.51;100.00
21960;BME280;11144;43.030;25.108;2023-04-06T04:40:40;98858.59;;;5.56;100.00
21960;BME280;11144;43.030;25.108;2023-04-06T04:42:27;98855.06;;;5.57;100.00
21960;BME280;11144;43.030;25.108;2023-04-06T04:44:16;98854.88;;;5.66;100.00
21960;BME280;11144;43.030;25.108;2023-04-06T04:45:56;98858.31;;;5.68;100.00
21960;BME280;11144;43.030;25.108;2023-04-06T04:47:46;98859.91;;;5.74;100.00
21960;BME280;11144;43.030;25.108;2023-04-06T04:49:36;98858.91;;;5.79;100.00
21960;BME280;11144;43.030;25.108;2023-04-06T04:51:27;98851.00;;;5.82;100.00
21960;BME280;11144;43.030;25.108;2023-04-06T04:53:32;98846.69;;;5.78;100.00
21960;BME280;11144;43.030;25.108;2023-04-06T04:55:23;98843.88;;;5.87;100.00
21960;BME280;11144;43.030;25.108;2023-04-06T04:57:25;98859.53;;;5.90;100.00
21960;BME280;11144;43.030;25.108;2023-04-06T04:59:08;98855.16;;;5.91;100.00
21960;BME280;11144;43.030;25.108;2023-04-06T05:01:08;98852.44;;;5.94;100.00
21960;BME280;11144;43.030;25.108;2023-04-06T05:03:08;98849.78;;;5.95;100.00
21960;BME280;11144;43.030;25.108;2023-04-06T05:04:50;98847.09;;;5.98;100.00
21960;BME280;11144;43.030;25.108;2023-04-06T05:06:37;98863.75;;;5.97;100.00
21960;BME280;11144;43.030;25.108;2023-04-06T05:08:30;98855.03;;;5.95;100.00
21960;BME280;11144;43.030;25.108;2023-04-06T05:10:11;98851.38;;;6.01;100.00
21960;BME280;11144;43.030;25.108;2023-04-06T05:12:14;98843.50;;;6.01;100.00
21960;BME280;11144;43.030;25.108;2023-04-06T05:14:10;98856.50;;;6.07;100.00
21960;BME280;11144;43.030;25.108;2023-04-06T05:15:57;98846.88;;;6.07;100.00
21960;BME280;11144;43.030;25.108;2023-04-06T05:17:45;98850.38;;;6.06;100.00
21960;BME280;11144;43.030;25.108;2023-04-06T05:19:43;98855.47;;;6.12;100.00
21960;BME280;11144;43.030;25.108;2023-04-06T05:21:31;98848.38;;;6.16;100.00
21960;BME280;11144;43.030;25.108;2023-04-06T05:23:24;98849.38;;;6.10;100.00
21960;BME280;11144;43.030;25.108;2023-04-06T05:25:07;98859.22;;;6.02;100.00
21960;BME280;11144;43.030;25.108;2023-04-06T05:26:57;98851.34;;;6.02;100.00
21960;BME280;11144;43.030;25.108;2023-04-06T05:28:46;98842.47;;;6.08;100.00
21960;BME280;11144;43.030;25.108;2023-04-06T05:30:27;98849.28;;;6.15;100.00
21960;BME280;11144;43.030;25.108;2023-04-06T05:32:28;98837.84;;;6.17;100.00
21960;BME280;11144;43.030;25.108;2023-04-06T05:34:28;98846.63;;;6.16;100.00
21960;BME280;11144;43.030;25.108;2023-04-06T05:36:27;98844.03;;;6.15;100.00
21960;BME280;11144;43.030;25.108;2023-04-06T05:38:29;98843.09;;;6.17;100.00
21960;BME280;11144;43.030;25.108;2023-04-06T05:40:48;98839.66;;;6.15;100.00
21960;BME280;11144;43.030;25.108;2023-04-06T05:42:37;98830.88;;;6.16;100.00
21960;BME280;11144;43.030;25.108;2023-04-06T05:44:26;98833.50;;;6.16;100.00
21960;BME280;11144;43.030;25.108;2023-04-06T05:46:18;98836.81;;;6.23;100.00
21960;BME280;11144;43.030;25.108;2023-04-06T05:48:05;98839.41;;;6.24;100.00
21960;BME280;11144;43.030;25.108;2023-04-06T05:49:52;98840.28;;;6.25;100.00
21960;BME280;11144;43.030;25.108;2023-04-06T05:51:38;98839.25;;;6.30;100.00
21960;BME280;11144;43.030;25.108;2023-04-06T05:53:25;98832.19;;;6.32;100.00
21960;BME280;11144;43.030;25.108;2023-04-06T05:55:12;98832.38;;;6.26;100.00
21960;BME280;11144;43.030;25.108;2023-04-06T05:56:59;98836.47;;;6.36;100.00
21960;BME280;11144;43.030;25.108;2023-04-06T05:58:48;98834.59;;;6.40;100.00
21960;BME280;11144;43.030;25.108;2023-04-06T06:00:40;98837.34;;;6.35;100.00
21960;BME280;11144;43.030;25.108;2023-04-06T06:02:27;98839.91;;;6.38;100.00
21960;BME280;11144;43.030;25.108;2023-04-06T06:04:30;98831.41;;;6.29;100.00
21960;BME280;11144;43.030;25.108;2023-04-06T06:06:30;98828.66;;;6.33;100.00
21960;BME280;11144;43.030;25.108;2023-04-06T06:08:37;98819.88;;;6.34;100.00
21960;BME280;11144;43.030;25.108;2023-04-06T06:10:30;98824.84;;;6.45;100.00
21960;BME280;11144;43.030;25.108;2023-04-06T06:12:13;98827.25;;;6.52;100.00
21960;BME280;11144;43.030;25.108;2023-04-06T06:14:06;98822.56;;;6.63;100.00
21960;BME280;11144;43.030;25.108;2023-04-06T06:15:54;98806.88;;;6.60;100.00
21960;BME280;11144;43.030;25.108;2023-04-06T06:17:55;98810.34;;;6.62;100.00
21960;BME280;11144;43.030;25.108;2023-04-06T06:19:42;98813.69;;;6.67;100.00
21960;BME280;11144;43.030;25.108;2023-04-06T06:21:43;98816.97;;;6.75;100.00
21960;BME280;11144;43.030;25.108;2023-04-06T06:23:30;98813.53;;;6.73;100.00
21960;BME280;11144;43.030;25.108;2023-04-06T06:25:16;98806.88;;;6.60;100.00
21960;BME280;11144;43.030;25.108;2023-04-06T06:27:03;98811.09;;;6.66;100.00
21960;BME280;11144;43.030;25.108;2023-04-06T06:28:57;98812.53;;;6.77;100.00
21960;BME280;11144;43.030;25.108;2023-04-06T06:30:40;98813.09;;;6.88;100.00
21960;BME280;11144;43.030;25.108;2023-04-06T06:32:42;98817.97;;;7.00;100.00
21960;BME280;11144;43.030;25.108;2023-04-06T06:34:23;98805.75;;;6.99;100.00
21960;BME280;11144;43.030;25.108;2023-04-06T06:36:18;98810.88;;;7.02;100.00
21960;BME280;11144;43.030;25.108;2023-04-06T06:38:05;98818.75;;;7.02;100.00
21960;BME280;11144;43.030;25.108;2023-04-06T06:39:52;98822.13;;;7.07;100.00
21960;BME280;11144;43.030;25.108;2023-04-06T06:41:32;98819.41;;;7.11;100.00
21960;BME280;11144;43.030;25.108;2023-04-06T06:43:19;98817.59;;;7.13;100.00
21960;BME280;11144;43.030;25.108;2023-04-06T06:45:10;98813.78;;;7.23;100.00
21960;BME280;11144;43.030;25.108;2023-04-06T06:46:50;98816.31;;;7.26;100.00
21960;BME280;11144;43.030;25.108;2023-04-06T06:48:38;98819.75;;;7.28;100.00
21960;BME280;11144;43.030;25.108;2023-04-06T06:50:25;98817.03;;;7.31;100.00
21960;BME280;11144;43.030;25.108;2023-04-06T06:52:05;98813.31;;;7.38;100.00
21960;BME280;11144;43.030;25.108;2023-04-06T06:53:52;98816.94;;;7.34;100.00
21960;BME280;11144;43.030;25.108;2023-04-06T06:55:38;98813.13;;;7.44;100.00
21960;BME280;11144;43.030;25.108;2023-04-06T06:57:19;98807.66;;;7.50;100.00
21960;BME280;11144;43.030;25.108;2023-04-06T06:59:06;98816.28;;;7.55;100.00
21960;BME280;11144;43.030;25.108;2023-04-06T07:00:56;98816.44;;;7.49;100.00
21960;BME280;11144;43.030;25.108;2023-04-06T07:02:43;98806.03;;;7.46;100.00
21960;BME280;11144;43.030;25.108;2023-04-06T07:04:47;98806.13;;;7.43;100.00
21960;BME280;11144;43.030;25.108;2023-04-06T07:07:00;98807.75;;;7.47;100.00
21960;BME280;11144;43.030;25.108;2023-04-06T07:08:49;98809.47;;;7.48;100.00
21960;BME280;11144;43.030;25.108;2023-04-06T07:10:50;98809.75;;;7.39;100.00
21960;BME280;11144;43.030;25.108;2023-04-06T07:12:31;98811.09;;;7.52;100.00
21960;BME280;11144;43.030;25.108;2023-04-06T07:14:23;98812.41;;;7.65;100.00
21960;BME280;11144;43.030;25.108;2023-04-06T07:16:11;98815.03;;;7.65;100.00
21960;BME280;11144;43.030;25.108;2023-04-06T07:18:06;98814.25;;;7.63;100.00
21960;BME280;11144;43.030;25.108;2023-04-06T07:19:53;98810.69;;;7.64;100.00
21960;BME280;11144;43.030;25.108;2023-04-06T07:21:47;98803.22;;;7.78;100.00
21960;BME280;11144;43.030;25.108;2023-04-06T07:23:28;98801.28;;;7.83;100.00
21960;BME280;11144;43.030;25.108;2023-04-06T07:25:15;98805.63;;;7.84;100.00
21960;BME280;11144;43.030;25.108;2023-04-06T07:27:10;98804.13;;;7.77;100.00
21960;BME280;11144;43.030;25.108;2023-04-06T07:28:57;98801.38;;;7.80;100.00
21960;BME280;11144;43.030;25.108;2023-04-06T07:30:49;98798.94;;;7.75;100.00
21960;BME280;11144;43.030;25.108;2023-04-06T07:32:30;98791.59;;;7.85;100.00
21960;BME280;11144;43.030;25.108;2023-04-06T07:34:30;98797.53;;;7.90;100.00
21960;BME280;11144;43.030;25.108;2023-04-06T07:36:13;98797.00;;;8.05;100.00
21960;BME280;11144;43.030;25.108;2023-04-06T07:38:06;98791.31;;;8.17;100.00
21960;BME280;11144;43.030;25.108;2023-04-06T07:39:55;98800.03;;;8.19;100.00
21960;BME280;11144;43.030;25.108;2023-04-06T07:41:49;98797.09;;;8.28;100.00
21960;BME280;11144;43.030;25.108;2023-04-06T07:43:35;98794.41;;;8.54;100.00
21960;BME280;11144;43.030;25.108;2023-04-06T07:45:29;98800.47;;;8.56;100.00
21960;BME280;11144;43.030;25.108;2023-04-06T07:47:10;98796.94;;;8.57;100.00
21960;BME280;11144;43.030;25.108;2023-04-06T07:49:11;98801.88;;;8.66;100.00
21960;BME280;11144;43.030;25.108;2023-04-06T07:50:51;98789.72;;;8.62;100.00
21960;BME280;11144;43.030;25.108;2023-04-06T07:52:50;98796.59;;;8.66;100.00
21960;BME280;11144;43.030;25.108;2023-04-06T07:54:37;98798.72;;;8.79;100.00
21960;BME280;11144;43.030;25.108;2023-04-06T07:56:37;98792.47;;;8.82;100.00
21960;BME280;11144;43.030;25.108;2023-04-06T07:58:17;98795.56;;;8.93;100.00
21960;BME280;11144;43.030;25.108;2023-04-06T08:00:17;98800.16;;;8.88;100.00
21960;BME280;11144;43.030;25.108;2023-04-06T08:02:18;98801.41;;;8.78;100.00
21960;BME280;11144;43.030;25.108;2023-04-06T08:04:19;98799.25;;;8.89;100.00
21960;BME280;11144;43.030;25.108;2023-04-06T08:06:00;98805.03;;;8.98;100.00
21960;BME280;11144;43.030;25.108;2023-04-06T08:07:46;98799.25;;;8.89;100.00
21960;BME280;11144;43.030;25.108;2023-04-06T08:09:34;98795.78;;;8.64;100.00
21960;BME280;11144;43.030;25.108;2023-04-06T08:11:14;98804.97;;;8.77;100.00
21960;BME280;11144;43.030;25.108;2023-04-06T08:13:00;98796.34;;;8.72;100.00
21960;BME280;11144;43.030;25.108;2023-04-06T08:14:47;98784.78;;;8.76;100.00
21960;BME280;11144;43.030;25.108;2023-04-06T08:16:27;98780.78;;;8.89;100.00
21960;BME280;11144;43.030;25.108;2023-04-06T08:18:13;98801.06;;;8.87;100.00
21960;BME280;11144;43.030;25.108;2023-04-06T08:20:00;98797.06;;;8.77;100.00
21960;BME280;11144;43.030;25.108;2023-04-06T08:21:42;98792.69;;;8.76;100.00
21960;BME280;11144;43.030;25.108;2023-04-06T08:23:29;98788.91;;;8.83;100.00
21960;BME280;11144;43.030;25.108;2023-04-06T08:25:17;98792.38;;;8.85;100.00
21960;BME280;11144;43.030;25.108;2023-04-06T08:26:57;98792.81;;;8.96;100.00
21960;BME280;11144;43.030;25.108;2023-04-06T08:28:43;98772.28;;;9.04;100.00
21960;BME280;11144;43.030;25.108;2023-04-06T08:30:30;98782.25;;;9.19;100.00
21960;BME280;11144;43.030;25.108;2023-04-06T08:32:10;98791.16;;;9.38;100.00
21960;BME280;11144;43.030;25.108;2023-04-06T08:33:56;98791.56;;;9.49;100.00
21960;BME280;11144;43.030;25.108;2023-04-06T08:35:43;98787.88;;;9.53;100.00
21960;BME280;11144;43.030;25.108;2023-04-06T08:37:23;98789.63;;;9.54;100.00
21960;BME280;11144;43.030;25.108;2023-04-06T08:39:09;98781.88;;;9.49;100.00
21960;BME280;11144;43.030;25.108;2023-04-06T08:40:57;98780.19;;;9.48;100.00
21960;BME280;11144;43.030;25.108;2023-04-06T08:42:40;98771.06;;;9.55;100.00
21960;BME280;11144;43.030;25.108;2023-04-06T08:44:41;98787.56;;;9.82;100.00
21960;BME280;11144;43.030;25.108;2023-04-06T08:46:29;98772.13;;;9.93;100.00
21960;BME280;11144;43.030;25.108;2023-04-06T08:48:16;98784.41;;;9.94;100.00
21960;BME280;11144;43.030;25.108;2023-04-06T08:50:05;98780.75;;;9.98;100.00
21960;BME280;11144;43.030;25.108;2023-04-06T08:51:59;98783.94;;;10.06;100.00
21960;BME280;11144;43.030;25.108;2023-04-06T08:53:39;98779.44;;;10.08;100.00
21960;BME280;11144;43.030;25.108;2023-04-06T08:55:39;98780.25;;;10.10;100.00
21960;BME280;11144;43.030;25.108;2023-04-06T08:57:22;98776.28;;;10.20;100.00
21960;BME280;11144;43.030;25.108;2023-04-06T08:59:16;98781.09;;;9.89;100.00
21960;BME280;11144;43.030;25.108;2023-04-06T09:01:06;98768.97;;;9.85;100.00
21960;BME280;11144;43.030;25.108;2023-04-06T09:03:00;98768.25;;;10.01;100.00
21960;BME280;11144;43.030;25.108;2023-04-06T09:04:48;98768.06;;;10.26;100.00
21960;BME280;11144;43.030;25.108;2023-04-06T09:06:42;98768.59;;;10.54;100.00
21960;BME280;11144;43.030;25.108;2023-04-06T09:08:23;98770.41;;;10.72;100.00
21960;BME280;11144;43.030;25.108;2023-04-06T09:10:23;98764.59;;;10.64;100.00
21960;BME280;11144;43.030;25.108;2023-04-06T09:12:23;98772.38;;;10.67;100.00
21960;BME280;11144;43.030;25.108;2023-04-06T09:14:10;98766.69;;;10.76;100.00
21960;BME280;11144;43.030;25.108;2023-04-06T09:16:00;98770.25;;;10.75;100.00
21960;BME280;11144;43.030;25.108;2023-04-06T09:17:54;98758.41;;;10.65;100.00
21960;BME280;11144;43.030;25.108;2023-04-06T09:19:45;98757.53;;;10.65;100.00
21960;BME280;11144;43.030;25.108;2023-04-06T09:21:46;98759.97;;;10.88;100.00
21960;BME280;11144;43.030;25.108;2023-04-06T09:23:25;98756.81;;;10.80;100.00
21960;BME280;11144;43.030;25.108;2023-04-06T09:25:26;98748.41;;;10.90;100.00
21960;BME280;11144;43.030;25.108;2023-04-06T09:27:06;98746.44;;;11.12;100.00
21960;BME280;11144;43.030;25.108;2023-04-06T09:28:54;98738.09;;;11.03;100.00
21960;BME280;11144;43.030;25.108;2023-04-06T09:30:48;98750.25;;;10.88;100.00
21960;BME280;11144;43.030;25.108;2023-04-06T09:32:28;98747.84;;;11.02;100.00
21960;BME280;11144;43.030;25.108;2023-04-06T09:34:20;98739.31;;;11.14;100.00
21960;BME280;11144;43.030;25.108;2023-04-06T09:36:15;98735.09;;;11.10;100.00
21960;BME280;11144;43.030;25.108;2023-04-06T09:37:55;98724.78;;;11.04;100.00
21960;BME280;11144;43.030;25.108;2023-04-06T09:39:41;98733.81;;;11.00;100.00
21960;BME280;11144;43.030;25.108;2023-04-06T09:41:29;98729.19;;;11.05;100.00
21960;BME280;11144;43.030;25.108;2023-04-06T09:43:09;98725.63;;;11.23;100.00
21960;BME280;11144;43.030;25.108;2023-04-06T09:44:57;98718.22;;;11.31;100.00
21960;BME280;11144;43.030;25.108;2023-04-06T09:46:45;98723.22;;;11.54;100.00
21960;BME280;11144;43.030;25.108;2023-04-06T09:48:38;98721.25;;;11.76;100.00
21960;BME280;11144;43.030;25.108;2023-04-06T09:50:25;98722.97;;;11.94;100.00
21960;BME280;11144;43.030;25.108;2023-04-06T09:52:19;98728.19;;;11.96;100.00
21960;BME280;11144;43.030;25.108;2023-04-06T09:54:22;98727.34;;;12.12;100.00
21960;BME280;11144;43.030;25.108;2023-04-06T09:56:12;98711.13;;;11.84;100.00
21960;BME280;11144;43.030;25.108;2023-04-06T09:58:13;98723.75;;;11.96;100.00
21960;BME280;11144;43.030;25.108;2023-04-06T10:00:03;98723.81;;;12.12;100.00
21960;BME280;11144;43.030;25.108;2023-04-06T10:02:05;98725.75;;;12.25;100.00
21960;BME280;11144;43.030;25.108;2023-04-06T10:04:21;98719.03;;;12.18;98.18
21960;BME280;11144;43.030;25.108;2023-04-06T10:06:14;98719.69;;;12.06;100.00
21960;BME280;11144;43.030;25.108;2023-04-06T10:08:06;98719.00;;;12.03;100.00
21960;BME280;11144;43.030;25.108;2023-04-06T10:09:48;98711.44;;;12.12;100.00
21960;BME280;11144;43.030;25.108;2023-04-06T10:11:36;98720.69;;;12.21;100.00
21960;BME280;11144;43.030;25.108;2023-04-06T10:13:30;98719.69;;;12.06;100.00
21960;BME280;11144;43.030;25.108;2023-04-06T10:15:11;98705.25;;;12.12;100.00
21960;BME280;11144;43.030;25.108;2023-04-06T10:17:11;98704.69;;;12.22;99.21
21960;BME280;11144;43.030;25.108;2023-04-06T10:19:13;98715.78;;;12.30;100.00
21960;BME280;11144;43.030;25.108;2023-04-06T10:21:04;98714.78;;;12.48;100.00
21960;BME280;11144;43.030;25.108;2023-04-06T10:22:55;98716.16;;;12.40;100.00
21960;BME280;11144;43.030;25.108;2023-04-06T10:24:52;98709.03;;;12.40;100.00
21960;BME280;11144;43.030;25.108;2023-04-06T10:26:32;98710.13;;;12.36;100.00
21960;BME280;11144;43.030;25.108;2023-04-06T10:28:34;98715.31;;;12.22;100.00
21960;BME280;11144;43.030;25.108;2023-04-06T10:30:15;98719.03;;;12.18;100.00
21960;BME280;11144;43.030;25.108;2023-04-06T10:32:09;98719.03;;;12.18;100.00
21960;BME280;11144;43.030;25.108;2023-04-06T10:33:53;98718.28;;;11.99;100.00
21960;BME280;11144;43.030;25.108;2023-04-06T10:35:40;98714.09;;;12.12;100.00
21960;BME280;11144;43.030;25.108;2023-04-06T10:37:46;98712.84;;;12.02;94.20
21960;BME280;11144;43.030;25.108;2023-04-06T10:39:47;98716.31;;;12.20;100.00
21960;BME280;11144;43.030;25.108;2023-04-06T10:41:34;98714.84;;;12.31;100.00
21960;BME280;11144;43.030;25.108;2023-04-06T10:43:34;98710.78;;;12.07;99.06
21960;BME280;11144;43.030;25.108;2023-04-06T10:45:36;98702.84;;;12.07;95.54
21960;BME280;11144;43.030;25.108;2023-04-06T10:47:24;98710.34;;;12.16;100.00
21960;BME280;11144;43.030;25.108;2023-04-06T10:49:18;98702.53;;;12.30;97.73
21960;BME280;11144;43.030;25.108;2023-04-06T10:50:58;98703.72;;;12.40;100.00
21960;BME280;11144;43.030;25.108;2023-04-06T10:53:02;98705.63;;;12.21;91.84
21960;BME280;11144;43.030;25.108;2023-04-06T10:54:49;98705.13;;;12.47;100.00
21960;BME280;11144;43.030;25.108;2023-04-06T10:56:44;98701.28;;;12.20;90.76
21960;BME280;11144;43.030;25.108;2023-04-06T10:58:31;98704.38;;;12.28;100.00
21960;BME280;11144;43.030;25.108;2023-04-06T11:00:19;98701.13;;;12.23;96.73
21960;BME280;11144;43.030;25.108;2023-04-06T11:02:02;98689.88;;;12.35;100.00
21960;BME280;11144;43.030;25.108;2023-04-06T11:04:02;98700.75;;;12.46;95.68
21960;BME280;11144;43.030;25.108;2023-04-06T11:06:06;98699.81;;;12.47;97.27
21960;BME280;11144;43.030;25.108;2023-04-06T11:07:53;98690.97;;;12.31;100.00